Skip Navigation Links Skip Navigation Links

Current Weather

Rochelle Muni Airport-Koritz Field, Rochelle, Ill.

For information only: do not use for flight planning or navigation.
Latest weather
Observation time Friday, February 28, 2020 5:55 AM CST
Local time Friday, February 28, 2020 6:20 AM CST
Flight conditions Visual Meteorological Conditions
Winds
Wind direction West-Northwest (290°)
Wind speed 5 mph
Visibility 10 mi.
Sky condition
Ceiling 7,000 ft. overcast
Cloud layer scattered clouds 5,500 ft.
Cloud layer overcast 7,000 ft.
Temperature 20°F
Dewpoint 14°F
Altimeter 30.05 in.Hg
Derived measurements
Relative humidity 78%
Wind chill 13°F
Density altitude -2026 ft.
Climate data
Remarks
Fully automated report.
Automated weather observing station with precipitation discriminator.
METAR KRPJ 281155Z AUTO 29004KT 10SM SCT055 OVC070 M07/M10 A3005 RMK AO2 T10681100 11066 21077

Settings

Location code

InnerDrive.Weather 4.0.6770.0 Release CLR 4.0.30319.42000
Copyright ©2018 Inner Drive Technology. All rights reserved. Portions Copyright ©1986-2018 David Braverman.

Find weather

Site navigation


Skip Navigation Links

Place info

Page info

PayPal - The safer, easier way to pay online!

Return home.

Copyright ©2020 Inner Drive Technology. Purveyors of fine, hand-crafted computer software. Page printed 2020-02-28T12:20:00 UTC.